»·PEaware :: AAL199 KSNA-KPHX

AAL199 :: KSNA-KPHX

FLIGHT INFORMATION

Flight Status: Arrived
Operator:
American Airlines
More flights by this operator :: More flights under this callsign
Pilot: Max W. (2591)
Aircraft: BOEING 767-200
(B762)
More flights by this aircraft type
Origin: KSNA John Wayne-Orange Co
United States
Destination: KPHX Phoenix Sky Harbor Intl
United States
More flights between these airports :: More routes between these airports
Route: PIGGN2 CNERY BLH HYDRR1
File this flight plan on PilotEdge
Remarks: STUDENT PILOT FAILED MY V1 5X SORRY KEITH
Altitude:
(Current/Filed)
31,000ft
Speed:
(Current/Filed)
450kts
Departed: 09-Apr-19 04:17 PM
Arrived: 09-Apr-19 05:11 PM
Distance/Time
Traveled:
292nm/0:54
Distance/Time
To Go:
Arrived

Flight Plot

Page will automatically refresh every two minutes.

Flight plan parsing failed; only flown route is shown


Map Options




Map Legend


Flown Route
Filed Route
Departure Airport
Arrival Airport
Navaid (VOR, NDB)
Fix

Horizontal Profiles

Position Reports

Time Latitude Longitude Heading Altitude Ground
Speed
09-Apr-19 16:08 33.678704 -117.862789 100 67ft 0kts
09-Apr-19 16:09 33.678704 -117.862789 100 67ft 0kts
09-Apr-19 16:10 33.678704 -117.862789 100 67ft 0kts
09-Apr-19 16:12 33.678775 -117.863004 129 67ft 2kts
09-Apr-19 16:13 33.679320 -117.863130 210 67ft 2kts
09-Apr-19 16:14 33.679707 -117.862885 207 67ft 0kts
09-Apr-19 16:15 33.679669 -117.863167 299 67ft 0kts
09-Apr-19 16:16 33.679872 -117.863524 303 67ft 11kts
09-Apr-19 16:17 33.672437 -117.870912 208 435ft 148kts
09-Apr-19 16:18 33.624036 -117.888908 193 5403ft 210kts
09-Apr-19 16:19 33.555602 -117.881563 156 10237ft 305kts
09-Apr-19 16:20 33.489341 -117.801522 112 15483ft 395kts
09-Apr-19 16:21 33.496988 -117.667233 56 20526ft 432kts
09-Apr-19 16:22 33.517071 -117.526432 106 23013ft 427kts
09-Apr-19 16:23 33.507197 -117.384849 86 23023ft 428kts
09-Apr-19 16:24 33.512844 -117.242500 85 23003ft 428kts
09-Apr-19 16:25 33.519007 -117.096984 86 25367ft 450kts
09-Apr-19 16:26 33.525303 -116.944382 88 28232ft 469kts
09-Apr-19 16:27 33.531648 -116.784895 89 30807ft 492kts
09-Apr-19 16:28 33.538001 -116.620274 89 30837ft 492kts
09-Apr-19 16:29 33.544110 -116.456413 89 30812ft 491kts
09-Apr-19 16:30 33.549785 -116.298501 89 30779ft 491kts
09-Apr-19 16:31 33.555618 -116.130258 89 30786ft 491kts
09-Apr-19 16:32 33.561078 -115.966432 90 30791ft 492kts
09-Apr-19 16:33 33.566307 -115.802986 89 30792ft 491kts
09-Apr-19 16:34 33.571041 -115.649155 90 30798ft 492kts
09-Apr-19 16:35 33.575873 -115.484750 90 30804ft 491kts
09-Apr-19 16:36 33.580309 -115.327246 90 30787ft 492kts
09-Apr-19 16:36 33.583965 -115.198596 90 30775ft 492kts
09-Apr-19 16:38 33.589270 -115.015647 90 30785ft 460kts
09-Apr-19 16:39 33.593044 -114.860810 90 30786ft 461kts
09-Apr-19 16:39 33.590213 -114.733332 106 30599ft 450kts
09-Apr-19 16:41 33.558400 -114.565434 108 28627ft 435kts
09-Apr-19 16:41 33.535828 -114.449746 108 27320ft 424kts
09-Apr-19 16:42 33.509935 -114.317942 109 25825ft 411kts
09-Apr-19 16:44 33.475775 -114.145879 107 24849ft 511kts
09-Apr-19 16:44 33.448148 -114.007031 107 24903ft 519kts
09-Apr-19 16:45 33.414347 -113.838599 107 24911ft 519kts
09-Apr-19 16:46 33.380986 -113.673249 107 22872ft 500kts
09-Apr-19 16:47 33.349036 -113.516174 107 20831ft 480kts
09-Apr-19 16:48 33.319788 -113.358653 105 20869ft 485kts
09-Apr-19 16:49 33.294206 -113.208827 103 19211ft 436kts
09-Apr-19 16:50 33.275673 -113.079350 103 15977ft 378kts
09-Apr-19 16:51 33.276560 -112.954890 89 14295ft 370kts
09-Apr-19 16:52 33.279967 -112.836491 91 13177ft 343kts
09-Apr-19 16:53 33.289414 -112.724404 86 11762ft 335kts
09-Apr-19 16:54 33.299652 -112.614999 86 11022ft 331kts
09-Apr-19 16:55 33.309769 -112.505938 86 11021ft 330kts
09-Apr-19 16:56 33.319806 -112.396658 86 11026ft 330kts
09-Apr-19 16:57 33.329520 -112.290294 86 11023ft 330kts
09-Apr-19 16:58 33.339233 -112.183472 87 10980ft 302kts
09-Apr-19 16:59 33.347313 -112.089973 91 9343ft 276kts
09-Apr-19 17:00 33.346348 -111.999903 94 8835ft 263kts
09-Apr-19 17:01 33.345828 -111.913558 92 6110ft 254kts
09-Apr-19 17:02 33.347173 -111.831498 91 4022ft 235kts
09-Apr-19 17:03 33.379492 -111.774010 354 3068ft 234kts
09-Apr-19 17:04 33.424550 -111.797272 299 3068ft 160kts
09-Apr-19 17:05 33.428392 -111.848000 267 3037ft 154kts
09-Apr-19 17:06 33.428661 -111.893416 263 2908ft 124kts
09-Apr-19 17:07 33.428723 -111.932743 263 2260ft 117kts
09-Apr-19 17:08 33.428789 -111.971284 263 1647ft 114kts
09-Apr-19 17:09 33.428835 -112.009121 266 1139ft 115kts
09-Apr-19 17:10 33.429761 -112.025346 346 1120ft 16kts

Navigation Log

Ident Type
Flight plan parsing failed, navigation log unavailable